Time;durP1;ratioP1;P1;durP2;ratioP2;P2;SDS_P1;SDS_P2;PMS_P1;PMS_P2;Temp;Humidity;BMP_temperature;BMP_pressure;BME280_temperature;BME280_humidity;BME280_pressure;Samples;Min_cycle;Max_cycle;Signal;HPM_P1;HPM_P2
2021/10/19 00:00:39;;;;;;;105.00;22.77;;;7.80;99.90;;;;;;4994681;28;20515;-48
2021/10/19 00:03:08;;;;;;;62.97;26.02;;;8.00;99.90;;;;;;4994833;28;20085;-44
2021/10/19 00:05:34;;;;;;;51.80;24.40;;;8.10;99.90;;;;;;4994931;28;20226;-46
2021/10/19 00:07:59;;;;;;;54.38;24.85;;;8.00;99.90;;;;;;4993234;28;20137;-44
2021/10/19 00:10:25;;;;;;;44.63;24.02;;;8.00;99.90;;;;;;4994725;28;20299;-48
2021/10/19 00:12:51;;;;;;;47.85;23.05;;;8.00;99.90;;;;;;4994814;28;20065;-45
2021/10/19 00:15:18;;;;;;;36.67;21.08;;;8.00;99.90;;;;;;4994446;28;20026;-46
2021/10/19 00:17:45;;;;;;;33.92;20.40;;;8.00;99.90;;;;;;4994385;28;20484;-44
2021/10/19 00:20:13;;;;;;;36.97;21.02;;;7.90;99.90;;;;;;4994728;28;20476;-47
2021/10/19 00:22:39;;;;;;;33.95;19.65;;;7.90;99.90;;;;;;4994625;28;20436;-44
2021/10/19 00:25:05;;;;;;;28.77;19.23;;;7.90;99.90;;;;;;4994496;28;20116;-45
2021/10/19 00:27:34;;;;;;;30.65;19.27;;;7.80;99.90;;;;;;4994166;28;20034;-45
2021/10/19 00:30:00;;;;;;;31.20;18.20;;;7.80;99.90;;;;;;4994310;28;20030;-46
2021/10/19 00:32:26;;;;;;;27.88;18.38;;;7.80;99.90;;;;;;4994403;28;20468;-46
2021/10/19 00:34:52;;;;;;;29.42;18.23;;;7.80;99.90;;;;;;4994363;28;20118;-45
2021/10/19 00:37:17;;;;;;;32.83;18.88;;;7.80;99.90;;;;;;4992927;28;20153;-44
2021/10/19 00:39:43;;;;;;;26.75;17.83;;;7.90;99.90;;;;;;4992873;28;20076;-47
2021/10/19 00:42:08;;;;;;;35.20;19.30;;;8.10;99.90;;;;;;4992828;28;20033;-48
2021/10/19 00:44:34;;;;;;;28.83;19.55;;;8.20;99.90;;;;;;4994255;28;20081;-45
2021/10/19 00:47:00;;;;;;;31.95;19.55;;;8.10;99.90;;;;;;4992816;28;20399;-49
2021/10/19 00:49:26;;;;;;;31.02;18.05;;;8.00;99.90;;;;;;4993796;28;20026;-45
2021/10/19 00:51:53;;;;;;;28.35;18.08;;;7.90;99.90;;;;;;4994148;28;20034;-47
2021/10/19 00:54:22;;;;;;;33.97;17.85;;;7.80;99.90;;;;;;4992864;28;20022;-44
2021/10/19 00:56:47;;;;;;;38.17;19.58;;;7.80;99.90;;;;;;4994021;28;20026;-45
2021/10/19 00:59:14;;;;;;;29.08;18.83;;;7.80;99.90;;;;;;4994103;28;20109;-46
2021/10/19 01:01:41;;;;;;;27.33;17.75;;;7.80;99.90;;;;;;4994002;28;20037;-45
2021/10/19 01:04:06;;;;;;;23.25;16.08;;;7.80;99.90;;;;;;4994131;28;20508;-44
2021/10/19 01:06:32;;;;;;;28.02;15.98;;;7.80;99.90;;;;;;4993866;28;20191;-45
2021/10/19 01:08:59;;;;;;;25.42;15.88;;;7.90;99.90;;;;;;4994063;28;20084;-46
2021/10/19 01:11:27;;;;;;;21.92;15.30;;;7.90;99.90;;;;;;4993684;28;20267;-47
2021/10/19 01:13:53;;;;;;;26.77;16.23;;;7.90;99.90;;;;;;4993560;28;20432;-45
2021/10/19 01:16:18;;;;;;;21.25;15.10;;;7.90;99.90;;;;;;4993466;28;20022;-47
2021/10/19 01:18:44;;;;;;;24.25;16.27;;;7.90;99.90;;;;;;4993669;28;20022;-46
2021/10/19 01:21:10;;;;;;;25.08;15.80;;;7.90;99.90;;;;;;4993440;28;20022;-44
2021/10/19 01:23:36;;;;;;;19.13;13.57;;;7.90;99.90;;;;;;4993749;28;20030;-45
2021/10/19 01:26:04;;;;;;;25.30;17.27;;;7.90;99.90;;;;;;4993811;28;20105;-49
2021/10/19 01:28:31;;;;;;;27.25;16.55;;;7.90;99.90;;;;;;4991770;28;20031;-47
2021/10/19 01:31:00;;;;;;;23.70;15.88;;;8.10;99.90;;;;;;4993222;28;20075;-45
2021/10/19 01:33:27;;;;;;;26.27;18.40;;;8.00;99.90;;;;;;4993316;28;20022;-45
2021/10/19 01:35:52;;;;;;;29.73;17.02;;;8.10;99.90;;;;;;4993485;28;20498;-46
2021/10/19 01:38:20;;;;;;;24.73;15.50;;;8.00;99.90;;;;;;4993046;28;20050;-46
2021/10/19 01:40:46;;;;;;;25.00;18.38;;;8.10;99.90;;;;;;4992880;28;20034;-48
2021/10/19 01:43:14;;;;;;;32.28;20.45;;;8.10;99.90;;;;;;4993089;28;20123;-47
2021/10/19 01:45:40;;;;;;;25.45;17.55;;;8.10;99.90;;;;;;4992998;28;20049;-47
2021/10/19 01:48:06;;;;;;;35.13;20.48;;;8.10;99.90;;;;;;4992703;28;20077;-49
2021/10/19 01:50:32;;;;;;;29.95;20.13;;;8.10;99.90;;;;;;4992752;28;20052;-45
2021/10/19 01:52:58;;;;;;;32.70;20.42;;;8.10;99.90;;;;;;4992966;28;20476;-49
2021/10/19 01:55:24;;;;;;;26.15;15.55;;;8.10;99.90;;;;;;4992717;28;20022;-48
2021/10/19 01:57:50;;;;;;;34.08;20.17;;;8.10;99.90;;;;;;4992493;28;20027;-46
2021/10/19 02:00:15;;;;;;;25.60;16.67;;;8.10;99.90;;;;;;4992795;28;20470;-46
2021/10/19 02:02:41;;;;;;;23.45;16.45;;;8.10;99.90;;;;;;4992590;28;20534;-47
2021/10/19 02:05:09;;;;;;;21.50;14.45;;;8.00;99.90;;;;;;4992117;28;20105;-50
2021/10/19 02:07:36;;;;;;;37.17;19.60;;;8.10;99.90;;;;;;4990861;28;20030;-47
2021/10/19 02:10:03;;;;;;;32.30;19.33;;;8.00;99.90;;;;;;5007494;28;20484;-46
2021/10/19 02:12:29;;;;;;;36.03;20.55;;;8.10;99.90;;;;;;4992603;28;20069;-46
2021/10/19 02:14:54;;;;;;;30.80;20.92;;;8.00;99.90;;;;;;4992387;28;20427;-50
2021/10/19 02:17:20;;;;;;;32.67;20.10;;;8.00;99.90;;;;;;5007265;28;20030;-46
2021/10/19 02:19:45;;;;;;;30.55;18.92;;;8.00;99.90;;;;;;4992337;28;20073;-45
2021/10/19 02:22:11;;;;;;;31.77;18.63;;;8.00;99.90;;;;;;4992258;28;20038;-45
2021/10/19 02:24:36;;;;;;;29.45;19.27;;;8.00;99.90;;;;;;4992648;28;20038;-46
2021/10/19 02:27:02;;;;;;;29.20;19.48;;;8.00;99.90;;;;;;4992431;28;20406;-45
2021/10/19 02:29:27;;;;;;;36.20;21.73;;;8.20;99.90;;;;;;4992461;28;20026;-45
2021/10/19 02:31:53;;;;;;;30.85;20.05;;;8.20;99.90;;;;;;5007152;28;20057;-48
2021/10/19 02:34:19;;;;;;;30.67;20.80;;;8.20;99.90;;;;;;4992014;28;20105;-47
2021/10/19 02:36:45;;;;;;;31.00;21.27;;;8.20;99.90;;;;;;4991892;28;20058;-46
2021/10/19 02:39:10;;;;;;;30.98;20.85;;;8.20;99.90;;;;;;4991946;28;20131;-47
2021/10/19 02:41:37;;;;;;;30.83;20.90;;;8.10;99.90;;;;;;4991644;28;20038;-45
2021/10/19 02:44:04;;;;;;;32.70;22.10;;;8.10;99.90;;;;;;4991939;28;20030;-46
2021/10/19 02:46:31;;;;;;;26.33;18.92;;;8.10;99.90;;;;;;4991616;28;20037;-49
2021/10/19 02:48:58;;;;;;;31.67;19.30;;;8.10;99.90;;;;;;4991963;28;20062;-46
2021/10/19 02:51:23;;;;;;;29.00;19.67;;;8.00;99.90;;;;;;4991507;28;20022;-49
2021/10/19 02:53:49;;;;;;;27.88;19.88;;;8.00;99.90;;;;;;4990464;28;20022;-47
2021/10/19 02:56:15;;;;;;;33.95;21.10;;;8.10;99.90;;;;;;4991393;28;20045;-47
2021/10/19 02:58:40;;;;;;;29.50;20.60;;;8.20;99.90;;;;;;4991669;28;20097;-47
2021/10/19 03:01:06;;;;;;;33.70;20.98;;;8.30;99.90;;;;;;4991677;28;20023;-47
2021/10/19 03:03:31;;;;;;;30.60;19.80;;;8.40;99.90;;;;;;4990292;28;20034;-48
2021/10/19 03:05:57;;;;;;;29.92;19.83;;;8.50;99.90;;;;;;4990216;28;20026;-47
2021/10/19 03:08:22;;;;;;;34.55;19.00;;;8.50;99.90;;;;;;4991368;28;20026;-49
2021/10/19 03:10:48;;;;;;;37.40;21.52;;;8.50;99.90;;;;;;4991298;28;20050;-47
2021/10/19 03:13:15;;;;;;;36.97;22.33;;;8.50;99.90;;;;;;4991518;28;20084;-47
2021/10/19 03:15:40;;;;;;;33.40;21.60;;;8.60;99.90;;;;;;4991561;28;20237;-45
2021/10/19 03:18:07;;;;;;;33.88;20.00;;;8.60;99.90;;;;;;4990320;28;20101;-47
2021/10/19 03:20:32;;;;;;;38.45;22.85;;;8.60;99.90;;;;;;4991346;28;20466;-48
2021/10/19 03:22:58;;;;;;;32.65;21.10;;;8.60;99.90;;;;;;4991393;28;20066;-46
2021/10/19 03:25:24;;;;;;;41.60;23.98;;;8.60;99.90;;;;;;4990263;28;20041;-48
2021/10/19 03:27:49;;;;;;;47.38;25.42;;;8.60;99.90;;;;;;4991312;28;20077;-48
2021/10/19 03:30:15;;;;;;;44.60;26.35;;;8.60;99.90;;;;;;4991387;28;20038;-45
2021/10/19 03:32:40;;;;;;;49.35;26.13;;;8.60;99.90;;;;;;4991292;28;20026;-49
2021/10/19 03:35:06;;;;;;;45.25;25.88;;;8.50;99.90;;;;;;4990125;28;20472;-46
2021/10/19 03:37:32;;;;;;;44.85;27.70;;;8.40;99.90;;;;;;4991151;28;20451;-45
2021/10/19 03:39:57;;;;;;;58.75;28.75;;;8.30;99.90;;;;;;4991349;28;20023;-46
2021/10/19 03:42:23;;;;;;;49.67;28.20;;;8.30;99.90;;;;;;4990828;28;20042;-47
2021/10/19 03:44:48;;;;;;;55.53;28.73;;;8.30;99.90;;;;;;4989898;28;20480;-46
2021/10/19 03:47:14;;;;;;;50.60;28.80;;;8.30;99.90;;;;;;4990901;28;20026;-45
2021/10/19 03:49:39;;;;;;;49.63;27.80;;;8.30;99.90;;;;;;4989667;28;20029;-45
2021/10/19 03:52:05;;;;;;;53.28;29.27;;;8.40;99.90;;;;;;4989615;28;20161;-47
2021/10/19 03:54:30;;;;;;;50.67;28.48;;;8.40;99.90;;;;;;4991160;28;20488;-45
2021/10/19 03:56:56;;;;;;;57.47;30.33;;;8.30;99.90;;;;;;4989027;28;20157;-46
2021/10/19 03:59:21;;;;;;;51.15;28.70;;;8.30;99.90;;;;;;4990300;28;20033;-46
2021/10/19 04:01:47;;;;;;;57.22;28.30;;;8.40;99.90;;;;;;4990849;28;20506;-48
2021/10/19 04:04:13;;;;;;;52.65;27.95;;;8.40;99.90;;;;;;4991074;28;20491;-45
2021/10/19 04:06:39;;;;;;;47.33;29.42;;;8.50;99.90;;;;;;4991132;28;20538;-45
2021/10/19 04:09:05;;;;;;;57.55;30.33;;;8.40;99.90;;;;;;4991356;28;20038;-46
2021/10/19 04:11:30;;;;;;;51.00;28.80;;;8.30;99.90;;;;;;4990910;28;20097;-45
2021/10/19 04:13:56;;;;;;;51.38;29.73;;;8.30;99.90;;;;;;4990944;28;20480;-45
2021/10/19 04:16:21;;;;;;;53.97;28.58;;;8.30;99.90;;;;;;4991023;28;20042;-45
2021/10/19 04:18:47;;;;;;;46.03;28.40;;;8.30;99.90;;;;;;4990897;28;20022;-45
2021/10/19 04:21:12;;;;;;;44.25;26.48;;;8.30;99.90;;;;;;4990900;28;20031;-46
2021/10/19 04:23:38;;;;;;;45.22;26.65;;;8.40;99.90;;;;;;4989782;28;20022;-45
2021/10/19 04:26:04;;;;;;;36.47;24.65;;;8.30;99.90;;;;;;4990800;28;20050;-43
2021/10/19 04:28:29;;;;;;;39.35;24.98;;;8.10;99.90;;;;;;4992229;28;20484;-50
2021/10/19 04:30:55;;;;;;;35.25;23.10;;;8.00;99.90;;;;;;4993359;28;20117;-47
2021/10/19 04:33:20;;;;;;;33.60;20.73;;;8.10;99.90;;;;;;4993290;28;20033;-46
2021/10/19 04:35:46;;;;;;;41.38;21.33;;;8.10;99.90;;;;;;4994474;28;20536;-45
2021/10/19 04:38:12;;;;;;;34.65;22.02;;;8.10;99.90;;;;;;4994033;28;20030;-48
2021/10/19 04:40:38;;;;;;;32.63;20.52;;;8.10;99.90;;;;;;4993735;28;20041;-45
2021/10/19 04:43:03;;;;;;;31.33;20.45;;;8.20;99.90;;;;;;4994243;28;20034;-47
2021/10/19 04:45:29;;;;;;;28.33;18.55;;;8.20;99.90;;;;;;4992873;28;20030;-45
2021/10/19 04:47:56;;;;;;;29.75;20.23;;;8.10;99.90;;;;;;4993854;28;20496;-47
2021/10/19 04:50:22;;;;;;;28.92;21.13;;;8.10;99.90;;;;;;4992651;28;20072;-45
2021/10/19 04:52:47;;;;;;;31.50;20.35;;;8.10;99.90;;;;;;4993983;28;20487;-46
2021/10/19 04:55:13;;;;;;;28.77;18.98;;;8.10;99.90;;;;;;4993954;28;20452;-45
2021/10/19 04:57:38;;;;;;;29.88;19.38;;;8.20;99.90;;;;;;4993618;28;20065;-46
2021/10/19 05:00:04;;;;;;;30.58;19.58;;;8.20;99.90;;;;;;4993924;28;20026;-46
2021/10/19 05:02:30;;;;;;;30.88;18.10;;;8.20;99.90;;;;;;4993616;28;20491;-50
2021/10/19 05:04:55;;;;;;;27.90;18.88;;;8.10;99.90;;;;;;4994211;28;20105;-45
2021/10/19 05:07:21;;;;;;;29.55;18.95;;;8.00;99.90;;;;;;4993496;28;20400;-47
2021/10/19 05:09:46;;;;;;;29.40;19.30;;;7.90;99.90;;;;;;4993645;28;20026;-44
2021/10/19 05:12:12;;;;;;;31.33;19.63;;;7.80;99.90;;;;;;4993387;28;20058;-46
2021/10/19 05:14:37;;;;;;;27.73;19.02;;;7.90;99.90;;;;;;5032102;23;20042;-47
2021/10/19 05:17:03;;;;;;;27.52;18.00;;;7.90;99.90;;;;;;5012234;28;20052;-49
2021/10/19 05:19:28;;;;;;;25.42;18.45;;;8.00;99.90;;;;;;5012951;28;20018;-43
2021/10/19 05:21:54;;;;;;;25.40;17.95;;;8.10;99.90;;;;;;5011770;28;20394;-43
2021/10/19 05:24:19;;;;;;;25.70;18.55;;;8.20;99.90;;;;;;5013007;28;20042;-45
2021/10/19 05:26:46;;;;;;;25.58;17.50;;;8.20;99.90;;;;;;5012161;28;20022;-43
2021/10/19 05:29:12;;;;;;;27.65;19.23;;;8.30;99.90;;;;;;5012977;28;20029;-45
2021/10/19 05:31:38;;;;;;;26.17;18.45;;;8.30;99.90;;;;;;5012957;28;20030;-43
2021/10/19 05:34:03;;;;;;;28.33;18.17;;;8.30;99.90;;;;;;5013468;28;20018;-43
2021/10/19 05:36:29;;;;;;;27.02;17.95;;;8.40;99.90;;;;;;5012382;28;20030;-47
2021/10/19 05:38:55;;;;;;;25.23;18.02;;;8.30;99.90;;;;;;5012818;28;20048;-50
2021/10/19 05:41:20;;;;;;;29.80;19.25;;;8.30;99.90;;;;;;5010757;28;20080;-43
2021/10/19 05:43:46;;;;;;;27.98;17.55;;;8.30;99.90;;;;;;5012629;28;20484;-46
2021/10/19 05:46:14;;;;;;;27.70;17.55;;;8.20;99.90;;;;;;5011991;28;20072;-42
2021/10/19 05:48:40;;;;;;;30.92;19.30;;;8.30;99.90;;;;;;5012466;28;20026;-46
2021/10/19 05:51:06;;;;;;;27.90;19.88;;;8.40;99.90;;;;;;5012336;28;20033;-46
2021/10/19 05:53:31;;;;;;;27.13;17.80;;;8.40;99.90;;;;;;5012532;28;20033;-44
2021/10/19 05:55:57;;;;;;;26.02;18.23;;;8.50;99.90;;;;;;5011106;28;20380;-44
2021/10/19 05:58:22;;;;;;;28.30;17.63;;;8.50;99.90;;;;;;5012305;28;20028;-48
2021/10/19 06:00:48;;;;;;;28.60;19.70;;;8.50;99.90;;;;;;5012425;28;20388;-41
2021/10/19 06:03:13;;;;;;;27.02;19.00;;;8.50;99.90;;;;;;5012347;28;20564;-44
2021/10/19 06:05:39;;;;;;;30.83;19.02;;;8.50;99.90;;;;;;5012335;28;20092;-48
2021/10/19 06:08:04;;;;;;;24.58;17.48;;;8.50;99.90;;;;;;5012113;28;20025;-47
2021/10/19 06:10:30;;;;;;;30.75;19.52;;;8.40;99.90;;;;;;5012023;28;20088;-45
2021/10/19 06:12:56;;;;;;;28.75;18.52;;;8.40;99.90;;;;;;5011797;28;20030;-46
2021/10/19 06:15:24;;;;;;;27.05;18.95;;;8.50;99.90;;;;;;5011974;28;20018;-44
2021/10/19 06:17:51;;;;;;;28.48;19.77;;;8.50;99.90;;;;;;5011229;28;20503;-47
2021/10/19 06:20:16;;;;;;;28.10;19.33;;;8.60;99.90;;;;;;5011894;28;20034;-45
2021/10/19 06:22:42;;;;;;;30.88;19.65;;;8.60;99.90;;;;;;5011773;28;20390;-48
2021/10/19 06:25:08;;;;;;;36.20;20.90;;;8.60;99.90;;;;;;5012056;28;20037;-45
2021/10/19 06:27:34;;;;;;;35.95;21.77;;;8.60;99.90;;;;;;5009740;28;20032;-45
2021/10/19 06:30:00;;;;;;;33.80;21.88;;;8.60;99.90;;;;;;5012220;28;20211;-48
2021/10/19 06:32:26;;;;;;;30.00;20.65;;;8.60;99.90;;;;;;5011647;28;20480;-44
2021/10/19 06:34:52;;;;;;;29.98;20.17;;;8.60;99.90;;;;;;5006759;28;20025;-46
2021/10/19 06:37:17;;;;;;;30.85;20.38;;;8.70;99.90;;;;;;4998383;28;20023;-47
2021/10/19 06:39:43;;;;;;;32.10;20.83;;;8.80;99.90;;;;;;4991087;28;20145;-47
2021/10/19 06:42:08;;;;;;;30.25;20.35;;;8.80;99.90;;;;;;4991916;28;20109;-45
2021/10/19 06:44:34;;;;;;;31.35;21.45;;;8.90;99.90;;;;;;4992853;28;20041;-47
2021/10/19 06:46:59;;;;;;;32.70;21.00;;;8.90;99.90;;;;;;5006618;28;20121;-48
2021/10/19 06:49:25;;;;;;;33.35;20.70;;;9.00;99.90;;;;;;5011786;28;20034;-43
2021/10/19 06:51:50;;;;;;;30.58;20.70;;;9.00;99.90;;;;;;5009829;28;20030;-45
2021/10/19 06:54:16;;;;;;;32.65;22.13;;;9.00;99.90;;;;;;5008354;28;20018;-49
2021/10/19 06:56:41;;;;;;;32.50;20.88;;;9.00;99.90;;;;;;5010369;28;20113;-48
2021/10/19 06:59:07;;;;;;;29.13;20.55;;;9.00;99.90;;;;;;5000184;28;20102;-44
2021/10/19 07:01:33;;;;;;;28.00;18.70;;;9.00;99.90;;;;;;4991552;28;20032;-45
2021/10/19 07:03:58;;;;;;;51.78;34.70;;;9.00;99.90;;;;;;4991450;28;20069;-45
2021/10/19 07:06:24;;;;;;;33.75;22.60;;;9.10;99.90;;;;;;4990955;28;20027;-47
2021/10/19 07:08:50;;;;;;;28.40;19.75;;;9.10;99.90;;;;;;4991559;28;20026;-44
2021/10/19 07:11:15;;;;;;;28.15;19.48;;;9.10;99.90;;;;;;4991483;28;20495;-44
2021/10/19 07:13:41;;;;;;;28.50;19.70;;;9.10;99.90;;;;;;4989857;28;20093;-45
2021/10/19 07:16:07;;;;;;;26.77;19.92;;;9.20;99.90;;;;;;4991040;28;20030;-42
2021/10/19 07:18:32;;;;;;;26.90;18.50;;;9.20;99.90;;;;;;4991199;28;20025;-49
2021/10/19 07:20:58;;;;;;;27.88;18.60;;;9.20;99.90;;;;;;4991500;28;20034;-45
2021/10/19 07:23:23;;;;;;;26.25;18.65;;;9.20;99.90;;;;;;4991548;28;20403;-46
2021/10/19 07:25:49;;;;;;;26.35;17.77;;;9.20;99.90;;;;;;4991261;28;20030;-48
2021/10/19 07:28:15;;;;;;;25.50;18.25;;;9.30;99.90;;;;;;4990663;28;20057;-45
2021/10/19 07:30:42;;;;;;;21.25;15.40;;;9.20;99.90;;;;;;4991017;28;20558;-47
2021/10/19 07:33:07;;;;;;;25.40;17.30;;;9.30;99.90;;;;;;4991158;28;20086;-46
2021/10/19 07:35:33;;;;;;;21.27;15.77;;;9.30;99.90;;;;;;4991209;28;20026;-47
2021/10/19 07:37:58;;;;;;;21.70;15.05;;;9.30;99.90;;;;;;4990505;28;20476;-49
2021/10/19 07:40:24;;;;;;;18.17;13.05;;;9.30;99.90;;;;;;4993714;28;20136;-46
2021/10/19 07:42:50;;;;;;;20.42;14.68;;;9.30;99.90;;;;;;5010627;28;20034;-47
2021/10/19 07:45:16;;;;;;;19.13;14.02;;;9.30;99.90;;;;;;5004092;28;20056;-43
2021/10/19 07:47:45;;;;;;;18.80;13.35;;;9.30;99.90;;;;;;4998053;28;20099;-45
2021/10/19 07:50:16;;;;;;;19.98;13.82;;;9.40;99.90;;;;;;4995386;28;20523;-45
2021/10/19 07:52:42;;;;;;;21.30;14.45;;;9.40;99.90;;;;;;4996997;28;20522;-45
2021/10/19 07:55:09;;;;;;;17.77;14.45;;;9.40;99.90;;;;;;5000038;28;20018;-45
2021/10/19 07:57:42;;;;;;;21.98;15.07;;;9.40;99.90;;;;;;5010043;28;20018;-48
2021/10/19 08:00:08;;;;;;;20.75;14.23;;;9.40;99.90;;;;;;4993153;28;20097;-46
2021/10/19 08:02:34;;;;;;;21.65;14.02;;;9.50;99.90;;;;;;4998787;28;20076;-46
2021/10/19 08:04:59;;;;;;;20.80;14.55;;;9.50;99.90;;;;;;5000449;28;20061;-44
2021/10/19 08:07:25;;;;;;;19.25;13.18;;;9.50;99.90;;;;;;5013719;28;20062;-49
2021/10/19 08:09:50;;;;;;;18.33;13.23;;;9.60;99.90;;;;;;5013164;28;20116;-46
2021/10/19 08:12:16;;;;;;;19.40;13.75;;;9.60;99.90;;;;;;5014303;28;20034;-46
2021/10/19 08:14:41;;;;;;;15.57;12.27;;;9.60;99.90;;;;;;5013986;28;20431;-49
2021/10/19 08:17:07;;;;;;;16.88;12.02;;;9.60;99.90;;;;;;5013737;28;20018;-45
2021/10/19 08:19:33;;;;;;;16.25;13.10;;;9.60;99.90;;;;;;5014635;28;20057;-45
2021/10/19 08:21:58;;;;;;;15.68;12.63;;;9.70;99.90;;;;;;5011595;28;20030;-48
2021/10/19 08:24:24;;;;;;;21.80;15.77;;;9.70;99.90;;;;;;5008598;28;20471;-51
2021/10/19 08:26:49;;;;;;;19.35;15.43;;;9.80;99.90;;;;;;5000550;28;20104;-45
2021/10/19 08:29:15;;;;;;;17.70;14.07;;;9.80;99.90;;;;;;5009872;28;20053;-47
2021/10/19 08:31:40;;;;;;;18.08;13.68;;;9.80;99.90;;;;;;5014125;28;20045;-50
2021/10/19 08:34:06;;;;;;;18.52;14.35;;;9.90;99.90;;;;;;5013927;28;20499;-47
2021/10/19 08:36:31;;;;;;;18.45;14.52;;;9.90;99.90;;;;;;5012538;28;20035;-49
2021/10/19 08:38:57;;;;;;;21.73;15.05;;;9.90;99.90;;;;;;5003946;28;20025;-46
2021/10/19 08:41:26;;;;;;;22.50;14.38;;;10.00;99.90;;;;;;4994204;28;20072;-48
2021/10/19 08:43:52;;;;;;;18.75;14.25;;;10.00;99.90;;;;;;5005600;28;20385;-49
2021/10/19 08:46:18;;;;;;;19.40;14.77;;;10.10;99.90;;;;;;5012740;28;20025;-46
2021/10/19 08:48:44;;;;;;;19.02;14.82;;;10.10;99.90;;;;;;5013860;28;20399;-47
2021/10/19 08:51:10;;;;;;;17.70;13.95;;;10.20;99.90;;;;;;4993454;28;20066;-47
2021/10/19 08:53:37;;;;;;;16.27;13.15;;;10.10;99.90;;;;;;5003157;28;20036;-47
2021/10/19 08:56:04;;;;;;;17.55;13.45;;;10.20;99.90;;;;;;5014514;28;20014;-44
2021/10/19 08:58:30;;;;;;;16.73;12.88;;;10.30;99.90;;;;;;4998643;28;20461;-44
2021/10/19 09:01:04;;;;;;;17.13;13.88;;;10.30;99.90;;;;;;5003222;28;20075;-45
2021/10/19 09:03:29;;;;;;;16.40;14.02;;;10.30;99.90;;;;;;5008616;28;20030;-46
2021/10/19 09:05:55;;;;;;;19.42;13.30;;;10.30;99.90;;;;;;4993682;28;20023;-44
2021/10/19 09:08:20;;;;;;;17.00;13.95;;;10.30;99.90;;;;;;4991709;28;20232;-48
2021/10/19 09:10:49;;;;;;;16.08;13.13;;;10.30;99.90;;;;;;4993451;28;20114;-44
2021/10/19 09:13:16;;;;;;;18.25;13.63;;;10.30;99.90;;;;;;4993336;28;20034;-47
2021/10/19 09:15:44;;;;;;;14.43;12.82;;;10.40;99.90;;;;;;4989694;28;20492;-44
2021/10/19 09:18:16;;;;;;;14.48;12.55;;;10.40;99.90;;;;;;4993188;28;20045;-44
2021/10/19 09:20:47;;;;;;;21.40;14.10;;;10.40;99.90;;;;;;4994262;28;20026;-48
2021/10/19 09:23:14;;;;;;;18.83;14.50;;;10.50;99.90;;;;;;4992006;28;20022;-45
2021/10/19 09:25:41;;;;;;;20.20;14.63;;;10.50;99.90;;;;;;4993567;28;20037;-47
2021/10/19 09:28:09;;;;;;;20.60;14.98;;;10.50;99.90;;;;;;4992648;28;20035;-44
2021/10/19 09:30:47;;;;;;;23.58;16.17;;;10.50;99.90;;;;;;4993432;28;20396;-47
2021/10/19 09:33:17;;;;;;;22.95;17.10;;;10.50;99.90;;;;;;4993138;28;20038;-46
2021/10/19 09:35:46;;;;;;;21.45;16.95;;;10.60;99.90;;;;;;4993336;28;20019;-49
2021/10/19 09:38:12;;;;;;;22.88;17.35;;;10.60;99.90;;;;;;4992591;28;20506;-45
2021/10/19 09:40:47;;;;;;;25.10;17.58;;;10.60;99.90;;;;;;4993304;28;20114;-48
2021/10/19 09:43:16;;;;;;;24.67;17.60;;;10.70;99.90;;;;;;4993101;28;20022;-45
2021/10/19 09:45:43;;;;;;;26.60;18.85;;;10.70;99.90;;;;;;4992970;28;20072;-48
2021/10/19 09:48:22;;;;;;;24.30;19.20;;;10.80;99.90;;;;;;4991412;28;20026;-44
2021/10/19 09:50:49;;;;;;;28.80;20.15;;;10.80;99.90;;;;;;4993247;28;20037;-47
2021/10/19 09:53:17;;;;;;;26.75;18.80;;;10.90;99.90;;;;;;4993068;28;20366;-45
2021/10/19 09:55:44;;;;;;;28.58;20.25;;;10.80;99.90;;;;;;4992146;28;20503;-46
2021/10/19 09:58:09;;;;;;;27.15;21.02;;;10.90;99.90;;;;;;4992815;28;20019;-47
2021/10/19 10:00:37;;;;;;;27.95;21.42;;;11.00;99.90;;;;;;4993135;28;20033;-47
2021/10/19 10:03:05;;;;;;;28.48;21.45;;;11.10;99.90;;;;;;4991867;28;20414;-44
2021/10/19 10:05:32;;;;;;;35.97;22.90;;;11.10;99.90;;;;;;4993189;28;20392;-45
2021/10/19 10:07:59;;;;;;;33.25;24.30;;;11.10;99.90;;;;;;4992355;28;20113;-44
2021/10/19 10:10:26;;;;;;;34.67;23.52;;;11.20;99.90;;;;;;4993139;28;20097;-45
2021/10/19 10:13:05;;;;;;;33.90;24.25;;;11.30;99.90;;;;;;4992512;28;20080;-48
2021/10/19 10:15:34;;;;;;;31.48;22.75;;;11.30;99.90;;;;;;4991017;28;20030;-45
2021/10/19 10:18:05;;;;;;;29.90;23.27;;;11.30;99.90;;;;;;4992017;28;20034;-52
2021/10/19 10:20:37;;;;;;;38.75;25.70;;;11.30;99.90;;;;;;4992213;28;20026;-44
2021/10/19 10:23:26;;;;;;;35.53;25.67;;;11.40;99.90;;;;;;4992317;28;20019;-45
2021/10/19 10:25:54;;;;;;;34.92;25.23;;;11.50;99.90;;;;;;4990678;28;20027;-48
2021/10/19 10:28:31;;;;;;;34.42;24.48;;;11.50;99.90;;;;;;4991892;28;20495;-48
2021/10/19 10:31:00;;;;;;;36.00;26.23;;;11.50;99.90;;;;;;4992213;28;20064;-46
2021/10/19 10:33:37;;;;;;;33.97;23.90;;;11.40;99.90;;;;;;4992434;28;20018;-48
2021/10/19 10:36:08;;;;;;;33.75;25.35;;;11.50;99.90;;;;;;4992373;28;20022;-49
2021/10/19 10:38:35;;;;;;;31.50;24.05;;;11.50;99.90;;;;;;4991961;28;20022;-46
2021/10/19 10:41:12;;;;;;;34.17;24.55;;;11.50;99.90;;;;;;4992132;28;20034;-46
2021/10/19 10:43:39;;;;;;;31.08;23.70;;;11.60;99.90;;;;;;4992156;28;20068;-47
2021/10/19 10:46:11;;;;;;;30.05;22.77;;;11.50;99.90;;;;;;4991258;28;20534;-42
2021/10/19 10:48:38;;;;;;;32.80;23.52;;;11.50;99.90;;;;;;4991844;28;20026;-46
2021/10/19 10:51:05;;;;;;;40.17;22.88;;;11.60;99.90;;;;;;4991949;28;20110;-47
2021/10/19 10:53:37;;;;;;;31.58;22.48;;;11.60;99.90;;;;;;4992053;28;20033;-45
2021/10/19 10:56:04;;;;;;;30.05;23.50;;;11.70;99.90;;;;;;4990493;28;20022;-47
2021/10/19 10:58:33;;;;;;;29.92;21.27;;;11.70;99.90;;;;;;4991274;28;20034;-47
2021/10/19 11:01:00;;;;;;;30.88;21.80;;;11.70;99.90;;;;;;4991812;28;20033;-47
2021/10/19 11:03:26;;;;;;;33.80;21.98;;;11.70;99.90;;;;;;4992117;28;20027;-45
2021/10/19 11:06:01;;;;;;;29.25;21.40;;;11.70;99.90;;;;;;4992131;28;20428;-45
2021/10/19 11:08:31;;;;;;;28.77;21.98;;;11.80;99.90;;;;;;4991343;28;20029;-47
2021/10/19 11:11:11;;;;;;;32.38;20.98;;;11.90;99.90;;;;;;4990164;28;20407;-51
2021/10/19 11:13:50;;;;;;;30.05;21.45;;;11.90;99.90;;;;;;5006434;23;20105;-49
2021/10/19 11:16:28;;;;;;;26.13;19.85;;;12.00;99.90;;;;;;4991011;28;20084;-48
2021/10/19 11:18:53;;;;;;;30.13;21.55;;;12.00;99.90;;;;;;4991617;28;20030;-48
2021/10/19 11:21:19;;;;;;;26.77;20.02;;;12.10;99.90;;;;;;4991972;28;20096;-47
2021/10/19 11:23:45;;;;;;;27.52;20.23;;;12.20;99.90;;;;;;4991198;28;20022;-50
2021/10/19 11:26:11;;;;;;;26.67;19.42;;;12.20;99.90;;;;;;4989456;28;20034;-47
2021/10/19 11:28:41;;;;;;;37.58;19.52;;;12.20;99.90;;;;;;4991157;28;20065;-45
2021/10/19 11:31:07;;;;;;;25.95;19.90;;;12.20;99.90;;;;;;4991138;28;20092;-45
2021/10/19 11:33:42;;;;;;;27.30;18.00;;;12.30;99.90;;;;;;4989714;28;20113;-46
2021/10/19 11:36:09;;;;;;;22.90;17.15;;;12.30;99.90;;;;;;4990729;28;20050;-45
2021/10/19 11:38:49;;;;;;;24.52;19.33;;;12.30;99.90;;;;;;4988648;28;20507;-46
2021/10/19 11:41:17;;;;;;;25.30;17.98;;;12.40;99.90;;;;;;4990960;28;20058;-50
2021/10/19 11:43:45;;;;;;;28.02;19.48;;;12.40;99.90;;;;;;4991189;28;20029;-48
2021/10/19 11:46:15;;;;;;;23.92;18.17;;;12.40;99.90;;;;;;4991080;28;20054;-46
2021/10/19 11:48:42;;;;;;;24.88;18.05;;;12.50;99.90;;;;;;4990956;28;20403;-51
2021/10/19 11:51:11;;;;;;;22.08;17.63;;;12.40;99.90;;;;;;4990703;28;20035;-50
2021/10/19 11:53:39;;;;;;;27.67;18.33;;;12.50;99.90;;;;;;4991155;28;20030;-49
2021/10/19 11:56:05;;;;;;;21.70;16.95;;;12.50;99.90;;;;;;4991147;28;20046;-46
2021/10/19 11:58:32;;;;;;;23.27;18.00;;;12.60;99.90;;;;;;4990649;28;20026;-49
2021/10/19 12:00:58;;;;;;;21.17;16.60;;;12.60;99.90;;;;;;4990886;28;20466;-51
2021/10/19 12:03:33;;;;;;;26.58;17.52;;;12.60;99.90;;;;;;4990720;28;20106;-54
2021/10/19 12:05:59;;;;;;;24.90;18.08;;;12.70;99.90;;;;;;4991005;28;20033;-51
2021/10/19 12:08:32;;;;;;;22.52;15.75;;;12.70;99.90;;;;;;4990086;28;20062;-50
2021/10/19 12:11:08;;;;;;;21.65;16.20;;;12.80;99.90;;;;;;4990660;28;20121;-49
2021/10/19 12:13:33;;;;;;;23.85;17.60;;;12.90;99.90;;;;;;4990567;28;20046;-51
2021/10/19 12:16:00;;;;;;;19.85;15.57;;;12.90;99.90;;;;;;4989966;28;20038;-46
2021/10/19 12:18:26;;;;;;;21.05;14.27;;;13.00;99.90;;;;;;4989989;28;20427;-47
2021/10/19 12:20:52;;;;;;;18.58;14.93;;;13.00;99.90;;;;;;4990482;28;20040;-45
2021/10/19 12:23:18;;;;;;;23.15;14.98;;;13.10;99.90;;;;;;4990401;28;20031;-50
2021/10/19 12:25:49;;;;;;;18.60;14.98;;;13.20;99.90;;;;;;4990681;28;20037;-51
2021/10/19 12:28:25;;;;;;;20.63;13.95;;;13.20;99.90;;;;;;4988261;28;20030;-48
2021/10/19 12:30:53;;;;;;;20.17;14.15;;;13.20;99.90;;;;;;4990425;28;20392;-45